KMIC/MIC METAR and TAF weather

Enter ICAO airport designator
Station Type Date Time Source
KMIC METAR 2020/09/27 03:53 UTC NOAA

KMIC 270353Z AUTO 00000KT 10SM BKN050 15/13 A2955 RMK AO2 SLP004 T01500133


Station Type Date Time Source
KMIC Decoded METAR 2020/09/27 03:53 UTC NOAA

CRYSTAL AIRPORT, MN, United States (KMIC) 45-04N 093-21W 265M
Sep 26, 2020 - 11:53 PM EDT / 2020.09.27 0353 UTC
Wind: Calm:0
Visibility: 10 mile(s):0
Sky conditions: mostly cloudy
Temperature: 59.0 F (15.0 C)
Dew Point: 55.9 F (13.3 C)
Relative Humidity: 89%
Pressure (altimeter): 29.55 in. Hg (1000 hPa)
ob: KMIC 270353Z AUTO 00000KT 10SM BKN050 15/13 A2955 RMK AO2 SLP004 T01500133
cycle: 4

Station Type Date Time Source
KMIC TAF UTC NOAA

Error!

Example: see airport list